Time;durP1;ratioP1;P1;durP2;ratioP2;P2;SDS_P1;SDS_P2;PMS_P1;PMS_P2;Temp;Humidity;BMP_temperature;BMP_pressure;BME280_temperature;BME280_humidity;BME280_pressure;Samples;Min_cycle;Max_cycle;Signal;HPM_P1;HPM_P2
2022/04/15 00:02:24;;;;;;;13.70;12.00;;;14.00;99.90;;;;;;5085934;28;20878;-81
2022/04/15 00:08:11;;;;;;;18.30;12.60;;;14.00;99.90;;;;;;5085331;28;20412;-80
2022/04/15 00:10:57;;;;;;;17.50;12.20;;;14.00;99.90;;;;;;5084427;28;20435;-82
2022/04/15 00:13:43;;;;;;;17.73;13.63;;;14.00;99.90;;;;;;5071349;28;20444;-81
2022/04/15 00:16:27;;;;;;;13.73;11.63;;;13.90;99.90;;;;;;5065604;28;20398;-81
2022/04/15 00:19:12;;;;;;;14.40;11.37;;;13.90;99.90;;;;;;5051885;28;20390;-79
2022/04/15 00:21:56;;;;;;;19.73;13.60;;;13.90;99.90;;;;;;5065788;28;20421;-80
2022/04/15 00:24:41;;;;;;;18.17;13.17;;;13.90;99.90;;;;;;5077891;28;20457;-80
2022/04/15 00:27:27;;;;;;;17.87;13.30;;;13.90;99.90;;;;;;5064958;28;20409;-78
2022/04/15 00:30:12;;;;;;;15.70;13.10;;;13.80;99.90;;;;;;5079847;28;20442;-81
2022/04/15 00:32:56;;;;;;;14.43;12.57;;;13.80;99.90;;;;;;5079854;28;20437;-80
2022/04/15 00:35:41;;;;;;;15.10;13.13;;;13.70;99.90;;;;;;5061271;28;20398;-81
2022/04/15 00:38:26;;;;;;;24.43;14.17;;;13.60;99.90;;;;;;5065960;28;20790;-81
2022/04/15 00:41:17;;;;;;;16.33;12.37;;;13.60;99.90;;;;;;5065903;28;20894;-81
2022/04/15 00:44:02;;;;;;;15.80;13.40;;;13.60;99.90;;;;;;5050035;28;20518;-80
2022/04/15 00:46:48;;;;;;;18.03;13.10;;;13.50;99.90;;;;;;5065325;28;20383;-80
2022/04/15 00:49:34;;;;;;;21.20;11.13;;;13.50;99.90;;;;;;5065241;28;20445;-80
2022/04/15 00:52:21;;;;;;;22.40;12.37;;;13.40;99.90;;;;;;5064729;28;20394;-82
2022/04/15 00:55:06;;;;;;;14.87;11.80;;;13.30;99.90;;;;;;5065008;28;20494;-81
2022/04/15 00:57:55;;;;;;;16.70;12.73;;;13.20;99.90;;;;;;5064340;28;20386;-80
2022/04/15 01:00:40;;;;;;;19.53;12.10;;;13.20;99.90;;;;;;5063890;28;20402;-81
2022/04/15 01:03:24;;;;;;;19.00;13.03;;;13.10;99.90;;;;;;5064825;28;20445;-81
2022/04/15 01:06:12;;;;;;;17.50;10.43;;;13.10;99.90;;;;;;5064543;28;20398;-81
2022/04/15 01:08:58;;;;;;;14.37;10.13;;;13.00;99.90;;;;;;5062026;28;20381;-80
2022/04/15 01:11:45;;;;;;;15.27;11.40;;;13.00;99.90;;;;;;5079296;28;20406;-81
2022/04/15 01:14:30;;;;;;;17.07;11.70;;;13.10;99.90;;;;;;5099301;28;20405;-81
2022/04/15 01:17:15;;;;;;;18.87;12.50;;;13.10;99.90;;;;;;5099011;28;20400;-81
2022/04/15 01:20:01;;;;;;;16.00;11.67;;;13.10;99.90;;;;;;5096399;28;20389;-78
2022/04/15 01:22:48;;;;;;;15.47;11.83;;;13.10;99.90;;;;;;5084800;28;20427;-81
2022/04/15 01:25:33;;;;;;;12.60;10.53;;;13.10;99.90;;;;;;5083809;28;20389;-81
2022/04/15 01:28:19;;;;;;;15.03;11.93;;;13.20;99.90;;;;;;5068328;28;20420;-80
2022/04/15 01:31:04;;;;;;;21.43;12.07;;;13.20;99.90;;;;;;5084082;28;20465;-80
2022/04/15 01:33:48;;;;;;;14.77;11.40;;;13.20;99.90;;;;;;5084139;28;20389;-82
2022/04/15 01:36:32;;;;;;;21.20;14.50;;;13.20;99.90;;;;;;5047662;28;20401;-81
2022/04/15 01:39:17;;;;;;;18.33;13.37;;;13.10;99.90;;;;;;5080215;28;20450;-81
2022/04/15 01:42:03;;;;;;;14.60;12.37;;;13.00;99.90;;;;;;5084953;28;20376;-81
2022/04/15 01:44:48;;;;;;;20.17;14.47;;;13.10;99.90;;;;;;5084536;28;20486;-80
2022/04/15 01:47:32;;;;;;;20.03;13.80;;;13.10;99.90;;;;;;5061856;28;20485;-81
2022/04/15 01:50:19;;;;;;;20.53;14.80;;;13.00;99.90;;;;;;5080840;28;20381;-81
2022/04/15 01:53:05;;;;;;;33.10;13.67;;;13.20;99.90;;;;;;5069115;28;20468;-82
2022/04/15 01:55:49;;;;;;;54.30;13.00;;;13.20;99.90;;;;;;5084595;28;20425;-81
2022/04/15 01:58:34;;;;;;;37.43;13.70;;;13.10;99.90;;;;;;5085160;28;20382;-81
2022/04/15 02:01:21;;;;;;;19.93;11.67;;;13.00;99.90;;;;;;5087805;28;20393;-81
2022/04/15 02:04:06;;;;;;;24.33;11.80;;;13.00;99.90;;;;;;5091218;28;20527;-81
2022/04/15 02:06:52;;;;;;;22.07;13.07;;;13.00;99.90;;;;;;5091150;28;20469;-81
2022/04/15 02:09:37;;;;;;;28.40;12.97;;;13.00;99.90;;;;;;5086297;28;20417;-81
2022/04/15 02:12:21;;;;;;;30.10;12.20;;;13.00;99.90;;;;;;5084316;28;20853;-81
2022/04/15 02:15:06;;;;;;;52.07;13.70;;;12.80;99.90;;;;;;5087551;28;20488;-81
2022/04/15 02:17:51;;;;;;;24.00;12.53;;;12.60;99.90;;;;;;5083943;28;20389;-81
2022/04/15 02:20:35;;;;;;;20.00;14.07;;;12.60;99.90;;;;;;5085799;28;20407;-81
2022/04/15 02:23:20;;;;;;;28.37;13.57;;;12.70;99.90;;;;;;5073354;28;20396;-81
2022/04/15 02:26:05;;;;;;;31.63;13.57;;;12.40;99.90;;;;;;5090156;28;20454;-81
2022/04/15 02:28:50;;;;;;;34.03;13.87;;;12.50;99.90;;;;;;5074178;28;20432;-81
2022/04/15 02:31:35;;;;;;;15.93;11.40;;;12.50;99.90;;;;;;5057779;28;20400;-81
2022/04/15 02:34:20;;;;;;;20.80;11.40;;;12.60;99.90;;;;;;5083091;28;20385;-81
2022/04/15 02:37:05;;;;;;;39.83;13.40;;;12.60;99.90;;;;;;5083774;28;20385;-81
2022/04/15 02:39:50;;;;;;;22.40;12.50;;;12.50;99.90;;;;;;5083613;28;20405;-80
2022/04/15 02:42:36;;;;;;;31.00;12.93;;;12.50;99.90;;;;;;5084299;28;20393;-80
2022/04/15 02:45:22;;;;;;;19.27;11.73;;;12.50;99.90;;;;;;5083237;28;20960;-81
2022/04/15 02:48:07;;;;;;;15.60;11.53;;;12.60;99.90;;;;;;5084553;28;20424;-80
2022/04/15 02:50:53;;;;;;;16.10;10.57;;;12.60;99.90;;;;;;5083784;28;20439;-81
2022/04/15 02:53:37;;;;;;;15.50;12.27;;;12.60;99.90;;;;;;5083566;28;20419;-80
2022/04/15 02:56:21;;;;;;;32.03;12.47;;;12.60;99.90;;;;;;5082829;28;20444;-80
2022/04/15 02:59:06;;;;;;;16.63;11.40;;;12.60;99.90;;;;;;5067784;28;20427;-80
2022/04/15 03:01:51;;;;;;;20.80;12.47;;;12.60;99.90;;;;;;5082952;28;20413;-81
2022/04/15 03:04:36;;;;;;;13.20;11.37;;;12.60;99.90;;;;;;5083486;28;20436;-81
2022/04/15 03:07:20;;;;;;;25.67;11.70;;;12.50;99.90;;;;;;5082297;28;20447;-81
2022/04/15 03:10:07;;;;;;;22.10;11.73;;;12.60;99.90;;;;;;5082846;28;20381;-80
2022/04/15 03:12:51;;;;;;;16.93;11.03;;;12.60;99.90;;;;;;5082392;28;20769;-80
2022/04/15 03:15:37;;;;;;;19.60;12.07;;;12.60;99.90;;;;;;5083049;28;20412;-80
2022/04/15 03:18:21;;;;;;;16.67;10.93;;;12.60;99.90;;;;;;5081587;28;20389;-81
2022/04/15 03:21:05;;;;;;;21.23;11.93;;;12.60;99.90;;;;;;5082552;28;20380;-80
2022/04/15 03:23:50;;;;;;;19.30;12.60;;;12.60;99.90;;;;;;5067427;28;20452;-80
2022/04/15 03:26:34;;;;;;;16.90;10.90;;;12.50;99.90;;;;;;5085309;28;20389;-81
2022/04/15 03:29:19;;;;;;;19.83;12.27;;;12.40;99.90;;;;;;5085786;28;20416;-81
2022/04/15 03:32:04;;;;;;;20.43;12.20;;;12.40;99.90;;;;;;5085755;28;20431;-80
2022/04/15 03:34:52;;;;;;;19.97;10.70;;;12.30;99.90;;;;;;5085657;28;20389;-81
2022/04/15 03:37:37;;;;;;;17.00;11.90;;;12.40;99.90;;;;;;5056256;28;20748;-81
2022/04/15 03:40:21;;;;;;;23.83;13.40;;;12.40;99.90;;;;;;5086267;28;20412;-80
2022/04/15 03:43:07;;;;;;;18.53;11.33;;;12.40;99.90;;;;;;5085559;28;20932;-81
2022/04/15 03:45:52;;;;;;;17.50;10.87;;;12.30;99.90;;;;;;5084076;28;20412;-81
2022/04/15 03:48:36;;;;;;;22.37;13.40;;;12.50;99.90;;;;;;5066935;28;20427;-81
2022/04/15 03:51:22;;;;;;;16.60;11.00;;;12.60;99.90;;;;;;5084602;28;20444;-80
2022/04/15 03:54:06;;;;;;;13.30;10.70;;;12.60;99.90;;;;;;5056378;28;20446;-81
2022/04/15 03:56:50;;;;;;;13.47;9.90;;;12.60;99.90;;;;;;5085459;28;20467;-81
2022/04/15 03:59:35;;;;;;;13.80;10.93;;;12.50;99.90;;;;;;5085261;28;20393;-80
2022/04/15 04:02:19;;;;;;;11.70;8.97;;;12.50;99.90;;;;;;5085516;28;20377;-81
2022/04/15 04:05:04;;;;;;;11.03;9.83;;;12.40;99.90;;;;;;5085452;28;20443;-80
2022/04/15 04:07:49;;;;;;;10.17;9.17;;;12.30;99.90;;;;;;5085561;28;20440;-81
2022/04/15 04:10:33;;;;;;;12.90;8.10;;;12.30;99.90;;;;;;5069603;28;20388;-81
2022/04/15 04:13:18;;;;;;;15.70;9.20;;;12.30;99.90;;;;;;5084952;28;20549;-81
2022/04/15 04:16:03;;;;;;;11.67;9.37;;;12.30;99.90;;;;;;5084727;28;20467;-80
2022/04/15 04:18:48;;;;;;;15.40;10.37;;;12.20;99.90;;;;;;5069246;28;20913;-80
2022/04/15 04:21:33;;;;;;;13.67;10.50;;;12.30;99.90;;;;;;5084638;28;20388;-81
2022/04/15 04:24:17;;;;;;;17.17;9.20;;;12.10;99.90;;;;;;5084233;28;20444;-81
2022/04/15 04:27:02;;;;;;;16.53;11.33;;;12.20;99.90;;;;;;5084533;28;20990;-81
2022/04/15 04:29:47;;;;;;;13.93;10.70;;;12.20;99.90;;;;;;5069271;28;20632;-81
2022/04/15 04:32:32;;;;;;;14.00;8.80;;;12.20;99.90;;;;;;5084017;28;20381;-81
2022/04/15 04:35:18;;;;;;;15.87;9.40;;;12.10;99.90;;;;;;5082810;28;20381;-81
2022/04/15 04:38:02;;;;;;;22.30;11.30;;;12.00;99.90;;;;;;5064016;28;20373;-81
2022/04/15 04:40:47;;;;;;;25.77;10.90;;;11.70;99.90;;;;;;5064648;28;20386;-81
2022/04/15 04:43:31;;;;;;;16.07;11.03;;;11.80;99.90;;;;;;5064219;28;20441;-81
2022/04/15 04:46:16;;;;;;;19.67;11.30;;;12.00;99.90;;;;;;5064173;28;20394;-80
2022/04/15 04:49:00;;;;;;;19.50;12.40;;;12.10;99.90;;;;;;5063997;28;20440;-81
2022/04/15 04:51:45;;;;;;;15.73;10.23;;;12.00;99.90;;;;;;5063696;28;20389;-81
2022/04/15 04:54:31;;;;;;;23.13;9.53;;;12.00;99.90;;;;;;5063674;28;20428;-82
2022/04/15 04:57:15;;;;;;;21.30;10.67;;;12.00;99.90;;;;;;5064019;28;20516;-81
2022/04/15 05:00:00;;;;;;;19.30;11.00;;;12.00;99.90;;;;;;5064165;28;20390;-81
2022/04/15 05:02:45;;;;;;;17.07;11.03;;;12.00;99.90;;;;;;5056317;28;20526;-81
2022/04/15 05:05:29;;;;;;;18.73;10.40;;;11.90;99.90;;;;;;5048653;28;20522;-81
2022/04/15 05:08:14;;;;;;;12.27;9.40;;;12.00;99.90;;;;;;5048890;28;20998;-81
2022/04/15 05:10:59;;;;;;;13.60;10.83;;;12.00;99.90;;;;;;5063120;28;20386;-81
2022/04/15 05:13:43;;;;;;;13.97;10.50;;;12.10;99.90;;;;;;5063968;28;20461;-81
2022/04/15 05:16:28;;;;;;;12.80;9.33;;;12.10;99.90;;;;;;5064403;28;20386;-81
2022/04/15 05:19:14;;;;;;;13.13;10.23;;;12.20;99.90;;;;;;5063789;28;20414;-83
2022/04/15 05:21:58;;;;;;;16.30;10.77;;;12.20;99.90;;;;;;5033450;28;20417;-81
2022/04/15 05:24:42;;;;;;;13.67;9.97;;;12.20;99.90;;;;;;5083722;28;20443;-80
2022/04/15 05:27:28;;;;;;;13.63;10.50;;;12.30;99.90;;;;;;5083856;28;20400;-81
2022/04/15 05:30:13;;;;;;;14.40;11.60;;;12.30;99.90;;;;;;5084190;28;20872;-81
2022/04/15 05:32:57;;;;;;;14.50;11.60;;;12.40;99.90;;;;;;5085292;28;20443;-82
2022/04/15 05:35:42;;;;;;;16.97;10.70;;;12.40;99.90;;;;;;5090463;28;20431;-82
2022/04/15 05:38:26;;;;;;;16.10;11.47;;;12.40;99.90;;;;;;5094407;28;20389;-80
2022/04/15 05:41:10;;;;;;;15.17;11.63;;;12.40;99.90;;;;;;5087128;28;20439;-81
2022/04/15 05:43:57;;;;;;;18.97;11.80;;;12.50;99.90;;;;;;5084414;28;20448;-80
2022/04/15 05:46:43;;;;;;;11.70;10.13;;;12.50;99.90;;;;;;5068648;28;20416;-81
2022/04/15 05:49:28;;;;;;;12.90;10.23;;;12.50;99.90;;;;;;5079535;28;20430;-81
2022/04/15 05:52:14;;;;;;;14.53;10.80;;;12.50;99.90;;;;;;5084775;28;20389;-80
2022/04/15 05:54:58;;;;;;;13.47;11.43;;;12.40;99.90;;;;;;5084859;28;20470;-80
2022/04/15 05:57:43;;;;;;;15.70;11.60;;;12.50;99.90;;;;;;5084162;28;20385;-81
2022/04/15 06:00:28;;;;;;;12.60;9.87;;;12.40;99.90;;;;;;5083630;28;20505;-80
2022/04/15 06:03:12;;;;;;;11.00;9.90;;;12.40;99.90;;;;;;5083755;28;20435;-80
2022/04/15 06:05:56;;;;;;;15.80;10.17;;;12.40;99.90;;;;;;5083704;28;20461;-81
2022/04/15 06:08:41;;;;;;;13.80;10.07;;;12.50;99.90;;;;;;5083331;28;20433;-80
2022/04/15 06:11:25;;;;;;;12.33;10.07;;;12.30;99.90;;;;;;5083504;28;20424;-82
2022/04/15 06:14:10;;;;;;;14.83;10.63;;;12.30;99.90;;;;;;5067339;28;20620;-80
2022/04/15 06:16:55;;;;;;;13.87;10.40;;;12.50;99.90;;;;;;5083151;28;20452;-80
2022/04/15 06:19:39;;;;;;;20.83;14.30;;;12.50;99.90;;;;;;5067530;28;20462;-80
2022/04/15 06:22:24;;;;;;;16.93;12.27;;;12.30;99.90;;;;;;5069651;28;20412;-80
2022/04/15 06:25:09;;;;;;;14.30;8.70;;;12.40;99.90;;;;;;5071601;28;20440;-80
2022/04/15 06:27:54;;;;;;;10.63;8.97;;;12.50;99.90;;;;;;5083326;28;20389;-80
2022/04/15 06:30:39;;;;;;;11.60;9.87;;;11.90;99.90;;;;;;5082808;28;20436;-80
2022/04/15 06:33:23;;;;;;;14.87;10.30;;;11.90;99.90;;;;;;5084406;28;20385;-80
2022/04/15 06:36:08;;;;;;;17.60;10.70;;;12.20;99.90;;;;;;5082947;28;20451;-80
2022/04/15 06:38:52;;;;;;;14.20;10.10;;;12.30;99.90;;;;;;5083681;28;20377;-80
2022/04/15 06:41:37;;;;;;;15.53;11.70;;;12.40;99.90;;;;;;5083133;28;20929;-80
2022/04/15 06:44:21;;;;;;;13.60;12.10;;;12.50;99.90;;;;;;5082508;28;20432;-80
2022/04/15 06:47:06;;;;;;;13.70;10.37;;;12.60;99.90;;;;;;5069940;28;20472;-82
2022/04/15 06:49:51;;;;;;;13.23;9.53;;;12.40;99.90;;;;;;5068357;28;20450;-82
2022/04/15 06:52:36;;;;;;;12.77;9.90;;;12.70;99.90;;;;;;5083427;28;20389;-81
2022/04/15 06:55:21;;;;;;;18.27;12.03;;;12.80;99.90;;;;;;5082019;28;20500;-80
2022/04/15 06:58:05;;;;;;;16.90;10.43;;;12.90;99.90;;;;;;5081812;28;20396;-81
2022/04/15 07:00:51;;;;;;;14.20;10.30;;;12.90;99.90;;;;;;5071249;28;20443;-82
2022/04/15 07:03:39;;;;;;;11.40;8.37;;;13.00;99.90;;;;;;5085701;28;20437;-81
2022/04/15 07:06:23;;;;;;;13.10;10.57;;;13.00;99.90;;;;;;5087069;28;20431;-80
2022/04/15 07:09:07;;;;;;;13.80;11.23;;;12.70;99.90;;;;;;5087270;28;20389;-82
2022/04/15 07:11:53;;;;;;;14.33;11.20;;;12.90;99.90;;;;;;5071174;28;20536;-81
2022/04/15 07:14:37;;;;;;;16.83;10.63;;;12.90;99.90;;;;;;5066905;28;20432;-80
2022/04/15 07:17:22;;;;;;;13.80;10.90;;;13.00;99.90;;;;;;5050416;28;20465;-81
2022/04/15 07:20:07;;;;;;;13.10;9.20;;;13.00;99.90;;;;;;5067572;28;20390;-81
2022/04/15 07:22:59;;;;;;;11.60;10.37;;;13.00;99.90;;;;;;5066945;28;20465;-80
2022/04/15 07:25:44;;;;;;;15.03;11.07;;;13.10;99.90;;;;;;5066555;28;20761;-81
2022/04/15 07:28:28;;;;;;;12.70;10.53;;;12.80;99.90;;;;;;5066550;28;20378;-81
2022/04/15 07:31:13;;;;;;;18.67;12.57;;;13.10;99.90;;;;;;5066374;28;20410;-81
2022/04/15 07:33:58;;;;;;;12.80;11.23;;;13.10;99.90;;;;;;5066293;28;20435;-81
2022/04/15 07:36:43;;;;;;;13.57;9.97;;;12.90;99.90;;;;;;5065942;28;20386;-81
2022/04/15 07:39:27;;;;;;;17.63;11.77;;;12.70;99.90;;;;;;5066408;28;20382;-81
2022/04/15 07:42:12;;;;;;;15.60;11.43;;;12.90;99.90;;;;;;5066088;28;20382;-81
2022/04/15 07:44:57;;;;;;;13.27;11.20;;;13.10;99.90;;;;;;5050472;28;20437;-81
2022/04/15 07:47:42;;;;;;;17.40;12.23;;;12.90;99.90;;;;;;5065872;28;20394;-80
2022/04/15 07:50:27;;;;;;;14.00;10.30;;;12.70;99.90;;;;;;5065393;28;20445;-81
2022/04/15 07:53:11;;;;;;;17.00;12.10;;;13.10;99.90;;;;;;5067613;28;20382;-82
2022/04/15 07:55:56;;;;;;;16.30;13.77;;;13.30;99.90;;;;;;5071441;28;20422;-81
2022/04/15 07:58:40;;;;;;;16.00;11.73;;;13.80;99.90;;;;;;5071693;28;20512;-81
2022/04/15 08:01:27;;;;;;;16.53;11.47;;;14.00;99.90;;;;;;5061200;28;20379;-81
2022/04/15 08:04:12;;;;;;;18.63;12.80;;;14.10;99.90;;;;;;5052389;28;20510;-82
2022/04/15 08:06:56;;;;;;;12.17;10.87;;;13.40;99.90;;;;;;5065937;28;20387;-81
2022/04/15 08:09:42;;;;;;;19.60;12.83;;;13.50;99.90;;;;;;5064382;28;20501;-81
2022/04/15 08:12:26;;;;;;;14.53;11.73;;;13.80;99.90;;;;;;5006704;28;20466;-82
2022/04/15 08:15:10;;;;;;;19.07;10.67;;;13.80;99.90;;;;;;5023566;28;20400;-81
2022/04/15 08:17:55;;;;;;;12.93;11.20;;;13.70;99.90;;;;;;5023636;28;20783;-81
2022/04/15 08:20:39;;;;;;;15.30;11.87;;;13.40;99.90;;;;;;5010121;28;20435;-81
2022/04/15 08:23:24;;;;;;;16.43;11.80;;;13.10;99.90;;;;;;5023241;28;20415;-81
2022/04/15 08:26:08;;;;;;;15.50;12.30;;;12.90;99.90;;;;;;5022961;28;20416;-81
2022/04/15 08:28:52;;;;;;;13.57;10.50;;;13.10;99.90;;;;;;5019142;28;20826;-81
2022/04/15 08:31:37;;;;;;;17.80;11.10;;;13.40;99.90;;;;;;5027280;28;20408;-81
2022/04/15 08:34:21;;;;;;;12.83;11.43;;;13.20;99.90;;;;;;5028280;28;20387;-81
2022/04/15 08:37:06;;;;;;;14.73;10.83;;;13.80;99.90;;;;;;5026680;28;20473;-82
2022/04/15 08:39:52;;;;;;;16.40;11.47;;;14.10;99.90;;;;;;5027380;28;20392;-81
2022/04/15 08:42:39;;;;;;;13.27;10.80;;;14.30;99.90;;;;;;5043125;28;20420;-81
2022/04/15 08:45:25;;;;;;;15.27;12.10;;;14.70;99.90;;;;;;5079189;28;20489;-82
2022/04/15 08:48:10;;;;;;;15.70;12.13;;;14.60;99.90;;;;;;5090011;28;20416;-82
2022/04/15 08:50:59;;;;;;;11.27;10.07;;;14.50;99.90;;;;;;5075506;28;20401;-82
2022/04/15 08:53:46;;;;;;;15.87;10.87;;;14.90;99.90;;;;;;5091046;28;20397;-82
2022/04/15 08:56:31;;;;;;;11.33;9.90;;;14.60;99.90;;;;;;5094276;28;20443;-81
2022/04/15 08:59:16;;;;;;;15.23;12.50;;;14.80;99.90;;;;;;5092464;28;20747;-82
2022/04/15 09:02:00;;;;;;;13.57;10.20;;;15.20;99.90;;;;;;5090233;28;20393;-82
2022/04/15 09:04:47;;;;;;;12.10;10.47;;;15.40;99.90;;;;;;5093609;28;20457;-81
2022/04/15 09:07:33;;;;;;;10.20;9.20;;;15.30;99.90;;;;;;5092517;28;20450;-81
2022/04/15 09:10:18;;;;;;;12.30;10.40;;;15.30;99.90;;;;;;5095000;28;20393;-81
2022/04/15 09:13:03;;;;;;;13.97;9.67;;;15.30;99.90;;;;;;5086886;28;20507;-82
2022/04/15 09:15:48;;;;;;;11.50;10.30;;;15.20;99.90;;;;;;5074111;28;20394;-80
2022/04/15 09:18:35;;;;;;;14.37;11.60;;;15.40;99.90;;;;;;5075150;28;20424;-80
2022/04/15 09:21:21;;;;;;;15.20;9.67;;;15.20;99.90;;;;;;5076913;28;20417;-79
2022/04/15 09:24:07;;;;;;;15.07;10.87;;;15.90;99.90;;;;;;5077724;28;20492;-81
2022/04/15 09:26:53;;;;;;;11.30;9.87;;;16.00;99.90;;;;;;5068055;28;20397;-80
2022/04/15 09:29:59;;;;;;;12.47;10.10;;;16.40;99.90;;;;;;5072745;28;20429;-82
2022/04/15 09:32:44;;;;;;;13.23;10.17;;;16.90;99.90;;;;;;5022145;28;20403;-82
2022/04/15 09:35:29;;;;;;;10.67;9.57;;;17.20;99.90;;;;;;5022246;28;20460;-82
2022/04/15 09:38:14;;;;;;;11.93;10.73;;;17.60;99.90;;;;;;5021592;28;20542;-81
2022/04/15 09:40:59;;;;;;;12.73;10.77;;;16.50;99.90;;;;;;5023065;28;20388;-80
2022/04/15 09:44:12;;;;;;;11.60;10.20;;;16.40;99.90;;;;;;5022500;28;20454;-82
2022/04/15 09:46:56;;;;;;;10.60;9.50;;;17.10;99.90;;;;;;4990725;28;21021;-82
2022/04/15 09:49:44;;;;;;;11.57;9.00;;;17.60;99.90;;;;;;5009304;28;20393;-82
2022/04/15 09:52:28;;;;;;;11.83;8.77;;;17.70;99.90;;;;;;4995683;28;20425;-78
2022/04/15 09:55:17;;;;;;;14.67;9.57;;;18.00;99.90;;;;;;4995126;28;20548;-79
2022/04/15 09:58:07;;;;;;;13.10;9.10;;;18.10;99.90;;;;;;4995168;28;20434;-81
2022/04/15 10:00:52;;;;;;;11.13;9.50;;;18.70;99.90;;;;;;4993524;28;20548;-78
2022/04/15 10:03:42;;;;;;;11.60;8.57;;;18.80;99.90;;;;;;4983665;28;20456;-82
2022/04/15 10:06:27;;;;;;;10.10;8.87;;;18.60;99.90;;;;;;5008617;28;20517;-82
2022/04/15 10:09:13;;;;;;;9.43;8.33;;;18.60;99.90;;;;;;5009189;28;20500;-79
2022/04/15 10:11:58;;;;;;;10.50;8.20;;;18.70;99.90;;;;;;5022110;28;20427;-79
2022/04/15 10:14:44;;;;;;;9.13;7.37;;;18.40;99.90;;;;;;5053859;28;20511;-79
2022/04/15 10:17:29;;;;;;;10.83;8.20;;;18.60;99.90;;;;;;5052518;28;20527;-81
2022/04/15 10:20:14;;;;;;;10.00;7.70;;;19.00;99.90;;;;;;5038953;28;20371;-81
2022/04/15 10:23:04;;;;;;;10.50;6.13;;;19.40;99.90;;;;;;5061977;28;20417;-82
2022/04/15 10:25:51;;;;;;;7.87;7.07;;;18.70;99.90;;;;;;5074812;28;20378;-81
2022/04/15 10:28:42;;;;;;;6.00;5.40;;;19.20;99.90;;;;;;5073453;28;20381;-81
2022/04/15 10:31:41;;;;;;;6.50;5.87;;;19.60;99.90;;;;;;5072748;28;20410;-82
2022/04/15 10:34:26;;;;;;;6.90;6.20;;;19.90;99.90;;;;;;5060995;28;20402;-79
2022/04/15 10:37:11;;;;;;;5.57;5.07;;;20.50;99.90;;;;;;5034200;28;20758;-80
2022/04/15 10:39:56;;;;;;;6.83;5.53;;;20.50;99.90;;;;;;5029302;28;21065;-83
2022/04/15 10:42:45;;;;;;;5.37;4.87;;;20.50;99.90;;;;;;5012438;28;20434;-81
2022/04/15 10:45:34;;;;;;;4.93;4.53;;;20.80;99.90;;;;;;5026695;28;20446;-78
2022/04/15 10:48:34;;;;;;;4.57;4.10;;;20.30;99.90;;;;;;5026028;28;20492;-82
2022/04/15 10:51:46;;;;;;;6.27;4.03;;;19.70;99.90;;;;;;5025174;28;20901;-81
2022/04/15 10:54:42;;;;;;;6.77;4.93;;;19.30;99.90;;;;;;5005776;28;20472;-81
2022/04/15 10:57:37;;;;;;;6.00;4.47;;;19.10;99.90;;;;;;5005666;28;20948;-82
2022/04/15 11:03:26;;;;;;;5.20;4.80;;;19.50;99.90;;;;;;4995385;28;20799;-80
2022/04/15 11:06:11;;;;;;;6.13;4.47;;;19.40;99.90;;;;;;5005918;28;20448;-81
2022/04/15 11:08:56;;;;;;;4.40;4.00;;;19.70;99.90;;;;;;5023699;28;20848;-80
2022/04/15 11:11:44;;;;;;;6.13;4.67;;;19.70;99.90;;;;;;5025070;28;20396;-82
2022/04/15 11:14:35;;;;;;;7.83;4.77;;;20.00;99.90;;;;;;5024931;28;20442;-80
2022/04/15 11:17:37;;;;;;;5.63;4.90;;;20.90;99.90;;;;;;5025161;28;20388;-81
2022/04/15 11:20:23;;;;;;;4.27;3.97;;;21.50;99.90;;;;;;5025343;28;20446;-81
2022/04/15 11:23:09;;;;;;;5.50;4.53;;;22.00;99.90;;;;;;5023984;28;20395;-80
2022/04/15 11:25:58;;;;;;;4.40;4.00;;;23.10;99.90;;;;;;5041087;28;20420;-80
2022/04/15 11:28:48;;;;;;;4.17;3.57;;;23.70;98.30;;;;;;5066078;28;20385;-81
2022/04/15 11:31:35;;;;;;;4.77;4.33;;;23.20;96.70;;;;;;5030437;28;20394;-80
2022/04/15 11:34:20;;;;;;;4.53;4.10;;;22.20;96.10;;;;;;5043045;28;20390;-81
2022/04/15 11:37:09;;;;;;;4.63;4.00;;;21.00;99.40;;;;;;5042475;28;20382;-80
2022/04/15 11:39:54;;;;;;;5.67;4.17;;;21.80;99.00;;;;;;5042844;28;20414;-80
2022/04/15 11:42:38;;;;;;;4.80;4.20;;;22.20;98.30;;;;;;5042922;28;20414;-79
2022/04/15 11:45:34;;;;;;;4.20;3.90;;;22.70;96.40;;;;;;5027851;28;20457;-81
2022/04/15 11:48:22;;;;;;;6.20;4.73;;;23.80;92.60;;;;;;5040677;28;20394;-80
2022/04/15 11:51:07;;;;;;;4.33;3.37;;;24.30;90.30;;;;;;5041219;28;20460;-81
2022/04/15 11:53:54;;;;;;;3.47;3.13;;;24.40;85.30;;;;;;5053257;28;20812;-81
2022/04/15 11:56:39;;;;;;;8.30;4.00;;;24.40;86.40;;;;;;5060471;28;20945;-82
2022/04/15 11:59:27;;;;;;;4.20;3.90;;;23.70;85.40;;;;;;5053771;28;20429;-81
2022/04/15 12:02:14;;;;;;;3.97;3.53;;;23.80;86.60;;;;;;5051182;28;20712;-82
2022/04/15 12:04:59;;;;;;;5.80;3.60;;;23.50;86.80;;;;;;5047246;28;20436;-82
2022/04/15 12:07:43;;;;;;;3.70;2.97;;;23.00;87.60;;;;;;5063006;28;20401;-82
2022/04/15 12:10:29;;;;;;;3.50;3.20;;;22.20;90.90;;;;;;5063308;28;20386;-82
2022/04/15 12:13:15;;;;;;;3.70;2.50;;;22.20;91.00;;;;;;5062577;28;20522;-81
2022/04/15 12:15:59;;;;;;;3.00;2.70;;;22.70;90.60;;;;;;5062367;28;20397;-80
2022/04/15 12:18:44;;;;;;;3.73;3.07;;;22.20;89.10;;;;;;5061868;28;20421;-79
2022/04/15 12:21:30;;;;;;;4.63;3.37;;;21.90;90.00;;;;;;5062901;28;20395;-81
2022/04/15 12:24:22;;;;;;;3.27;3.07;;;21.30;91.50;;;;;;5062780;28;20456;-81
2022/04/15 12:27:07;;;;;;;5.93;2.60;;;20.90;92.00;;;;;;5068358;28;20445;-80
2022/04/15 12:29:52;;;;;;;2.63;2.43;;;20.80;93.90;;;;;;5073277;28;20459;-81
2022/04/15 12:32:39;;;;;;;4.67;2.87;;;21.90;91.90;;;;;;5049411;28;20426;-81
2022/04/15 12:35:24;;;;;;;5.80;3.00;;;23.30;88.80;;;;;;5062280;28;20405;-80
2022/04/15 12:38:09;;;;;;;3.03;2.83;;;24.30;82.70;;;;;;5061638;28;20457;-82
2022/04/15 12:41:10;;;;;;;2.90;2.70;;;25.30;78.20;;;;;;5026186;28;20473;-82
2022/04/15 12:44:31;;;;;;;4.00;3.60;;;25.70;75.50;;;;;;5060638;28;20460;-79
2022/04/15 12:47:16;;;;;;;3.03;2.83;;;26.30;72.10;;;;;;5063545;28;20398;-81
2022/04/15 12:50:23;;;;;;;3.57;2.77;;;26.60;68.80;;;;;;5060998;28;20424;-79
2022/04/15 12:53:23;;;;;;;4.00;2.87;;;26.70;67.70;;;;;;5060894;28;20443;-80
2022/04/15 12:56:11;;;;;;;2.90;2.70;;;26.80;63.70;;;;;;5059295;28;20429;-81
2022/04/15 12:58:57;;;;;;;2.90;2.70;;;26.40;66.20;;;;;;5046501;28;20440;-81
2022/04/15 13:01:41;;;;;;;3.10;2.80;;;26.30;66.80;;;;;;5019287;28;20438;-81
2022/04/15 13:04:26;;;;;;;4.83;2.73;;;27.00;64.30;;;;;;4981125;28;20472;-80
2022/04/15 13:07:10;;;;;;;2.70;2.50;;;27.10;60.60;;;;;;4980292;28;20417;-81
2022/04/15 13:09:55;;;;;;;2.57;2.37;;;27.00;61.30;;;;;;4998573;28;20432;-81
2022/04/15 13:12:40;;;;;;;3.27;2.60;;;26.90;59.10;;;;;;5004441;28;20446;-80
2022/04/15 13:15:25;;;;;;;2.67;2.47;;;27.00;59.20;;;;;;5019531;28;20495;-82
2022/04/15 13:18:09;;;;;;;3.30;2.40;;;26.70;58.20;;;;;;5032378;28;20590;-82
2022/04/15 13:20:54;;;;;;;2.37;2.17;;;26.90;58.00;;;;;;5018809;28;20418;-80
2022/04/15 13:23:38;;;;;;;2.40;2.23;;;26.80;58.00;;;;;;5021003;28;20559;-82
2022/04/15 13:26:23;;;;;;;2.80;2.60;;;26.50;58.70;;;;;;5014295;28;20430;-83
2022/04/15 13:29:07;;;;;;;5.00;2.60;;;27.20;56.30;;;;;;5029689;28;20576;-81
2022/04/15 13:31:53;;;;;;;2.07;1.90;;;26.40;56.70;;;;;;5028669;28;20449;-81
2022/04/15 13:34:38;;;;;;;2.57;2.37;;;25.90;58.10;;;;;;5050783;28;20412;-80
2022/04/15 13:37:23;;;;;;;2.40;1.90;;;24.90;59.30;;;;;;5081697;28;20404;-81
2022/04/15 13:40:08;;;;;;;2.50;2.30;;;24.00;60.90;;;;;;5081298;28;20766;-82
2022/04/15 13:42:53;;;;;;;2.27;2.07;;;23.60;60.30;;;;;;5025592;28;20418;-82
2022/04/15 13:45:38;;;;;;;6.70;2.40;;;23.30;62.70;;;;;;5037476;28;20445;-81
2022/04/15 13:48:22;;;;;;;2.07;1.87;;;22.40;64.20;;;;;;5038452;28;20470;-81
2022/04/15 13:51:08;;;;;;;2.40;2.20;;;21.10;68.20;;;;;;5037472;28;20522;-80
2022/04/15 13:56:55;;;;;;;4.90;2.10;;;22.70;69.90;;;;;;5037788;28;20838;-81
2022/04/15 13:59:39;;;;;;;2.60;2.40;;;23.90;67.10;;;;;;5024269;28;20446;-81
2022/04/15 14:02:24;;;;;;;4.83;2.80;;;24.70;64.60;;;;;;5038018;28;20414;-82
2022/04/15 14:05:09;;;;;;;3.20;2.90;;;24.20;64.20;;;;;;5037682;28;20488;-81
2022/04/15 14:07:53;;;;;;;2.67;2.47;;;23.60;65.70;;;;;;5036919;28;20834;-82
2022/04/15 14:10:39;;;;;;;3.87;2.70;;;23.30;65.20;;;;;;5037687;28;20449;-81
2022/04/15 14:13:23;;;;;;;2.60;2.40;;;22.80;66.80;;;;;;5029585;28;20457;-81
2022/04/15 14:16:08;;;;;;;2.63;2.43;;;23.00;68.10;;;;;;5044425;28;20409;-81
2022/04/15 14:18:53;;;;;;;3.30;3.00;;;22.90;67.70;;;;;;5059727;28;20389;-82